sensor_id;sensor_type;location;lat;lon;timestamp;P1;durP1;ratioP1;P2;durP2;ratioP2
4533;SDS011;2279;51.448;7.306;2023-05-10T00:00:54;5.97;;;4.80;;
4533;SDS011;2279;51.448;7.306;2023-05-10T00:03:20;6.63;;;5.17;;
4533;SDS011;2279;51.448;7.306;2023-05-10T00:05:46;10.80;;;5.47;;
4533;SDS011;2279;51.448;7.306;2023-05-10T00:08:12;6.77;;;5.20;;
4533;SDS011;2279;51.448;7.306;2023-05-10T00:10:38;5.27;;;4.60;;
4533;SDS011;2279;51.448;7.306;2023-05-10T00:13:05;8.23;;;6.47;;
4533;SDS011;2279;51.448;7.306;2023-05-10T00:15:31;7.63;;;5.83;;
4533;SDS011;2279;51.448;7.306;2023-05-10T00:17:57;6.63;;;5.40;;
4533;SDS011;2279;51.448;7.306;2023-05-10T00:20:23;6.50;;;4.17;;
4533;SDS011;2279;51.448;7.306;2023-05-10T00:22:49;10.17;;;5.27;;
4533;SDS011;2279;51.448;7.306;2023-05-10T00:25:15;7.53;;;5.77;;
4533;SDS011;2279;51.448;7.306;2023-05-10T00:27:41;8.20;;;5.83;;
4533;SDS011;2279;51.448;7.306;2023-05-10T00:30:07;6.87;;;5.37;;
4533;SDS011;2279;51.448;7.306;2023-05-10T00:32:33;12.73;;;5.97;;
4533;SDS011;2279;51.448;7.306;2023-05-10T00:35:00;7.37;;;5.40;;
4533;SDS011;2279;51.448;7.306;2023-05-10T00:37:25;6.90;;;5.27;;
4533;SDS011;2279;51.448;7.306;2023-05-10T00:39:52;8.80;;;4.73;;
4533;SDS011;2279;51.448;7.306;2023-05-10T00:42:18;10.03;;;7.73;;
4533;SDS011;2279;51.448;7.306;2023-05-10T00:44:44;6.07;;;4.97;;
4533;SDS011;2279;51.448;7.306;2023-05-10T00:47:10;7.13;;;5.37;;
4533;SDS011;2279;51.448;7.306;2023-05-10T00:49:36;9.07;;;5.63;;
4533;SDS011;2279;51.448;7.306;2023-05-10T00:52:02;11.00;;;7.67;;
4533;SDS011;2279;51.448;7.306;2023-05-10T00:54:28;12.97;;;6.20;;
4533;SDS011;2279;51.448;7.306;2023-05-10T00:56:55;13.77;;;6.00;;
4533;SDS011;2279;51.448;7.306;2023-05-10T00:59:22;6.63;;;5.43;;
4533;SDS011;2279;51.448;7.306;2023-05-10T01:01:49;8.60;;;6.83;;
4533;SDS011;2279;51.448;7.306;2023-05-10T01:04:16;9.30;;;6.63;;
4533;SDS011;2279;51.448;7.306;2023-05-10T01:06:42;9.73;;;7.00;;
4533;SDS011;2279;51.448;7.306;2023-05-10T01:09:08;11.70;;;8.10;;
4533;SDS011;2279;51.448;7.306;2023-05-10T01:11:35;12.87;;;7.90;;
4533;SDS011;2279;51.448;7.306;2023-05-10T01:14:02;10.60;;;7.40;;
4533;SDS011;2279;51.448;7.306;2023-05-10T01:16:29;9.47;;;6.83;;
4533;SDS011;2279;51.448;7.306;2023-05-10T01:18:57;10.20;;;6.90;;
4533;SDS011;2279;51.448;7.306;2023-05-10T01:23:59;12.87;;;7.63;;
4533;SDS011;2279;51.448;7.306;2023-05-10T01:34:06;20.83;;;9.07;;
4533;SDS011;2279;51.448;7.306;2023-05-10T01:39:05;12.90;;;8.93;;
4533;SDS011;2279;51.448;7.306;2023-05-10T01:44:39;15.03;;;8.23;;
4533;SDS011;2279;51.448;7.306;2023-05-10T01:47:07;18.00;;;8.30;;
4533;SDS011;2279;51.448;7.306;2023-05-10T01:49:37;10.93;;;7.30;;
4533;SDS011;2279;51.448;7.306;2023-05-10T01:52:06;12.27;;;8.23;;
4533;SDS011;2279;51.448;7.306;2023-05-10T01:54:34;11.70;;;7.10;;
4533;SDS011;2279;51.448;7.306;2023-05-10T01:57:02;10.20;;;7.90;;
4533;SDS011;2279;51.448;7.306;2023-05-10T01:59:30;14.70;;;7.97;;
4533;SDS011;2279;51.448;7.306;2023-05-10T02:02:05;13.57;;;8.00;;
4533;SDS011;2279;51.448;7.306;2023-05-10T02:04:32;8.40;;;7.13;;
4533;SDS011;2279;51.448;7.306;2023-05-10T02:06:58;10.80;;;7.90;;
4533;SDS011;2279;51.448;7.306;2023-05-10T02:09:25;12.00;;;7.53;;
4533;SDS011;2279;51.448;7.306;2023-05-10T02:11:52;10.17;;;8.07;;
4533;SDS011;2279;51.448;7.306;2023-05-10T02:14:18;12.03;;;7.87;;
4533;SDS011;2279;51.448;7.306;2023-05-10T02:16:45;11.07;;;8.20;;
4533;SDS011;2279;51.448;7.306;2023-05-10T02:19:11;11.00;;;7.60;;
4533;SDS011;2279;51.448;7.306;2023-05-10T02:21:39;12.63;;;8.60;;
4533;SDS011;2279;51.448;7.306;2023-05-10T02:24:05;19.30;;;9.47;;
4533;SDS011;2279;51.448;7.306;2023-05-10T02:26:32;12.20;;;8.63;;
4533;SDS011;2279;51.448;7.306;2023-05-10T02:28:59;13.13;;;8.97;;
4533;SDS011;2279;51.448;7.306;2023-05-10T02:31:28;19.43;;;9.07;;
4533;SDS011;2279;51.448;7.306;2023-05-10T02:33:54;15.33;;;9.60;;
4533;SDS011;2279;51.448;7.306;2023-05-10T02:36:20;12.97;;;8.83;;
4533;SDS011;2279;51.448;7.306;2023-05-10T02:38:47;20.03;;;12.03;;
4533;SDS011;2279;51.448;7.306;2023-05-10T02:41:14;12.70;;;9.27;;
4533;SDS011;2279;51.448;7.306;2023-05-10T02:43:40;15.60;;;10.27;;
4533;SDS011;2279;51.448;7.306;2023-05-10T02:46:07;15.27;;;9.83;;
4533;SDS011;2279;51.448;7.306;2023-05-10T02:48:33;19.43;;;11.57;;
4533;SDS011;2279;51.448;7.306;2023-05-10T02:51:03;13.20;;;10.00;;
4533;SDS011;2279;51.448;7.306;2023-05-10T02:53:31;19.73;;;10.80;;
4533;SDS011;2279;51.448;7.306;2023-05-10T02:55:59;16.10;;;10.23;;
4533;SDS011;2279;51.448;7.306;2023-05-10T02:58:26;16.00;;;11.03;;
4533;SDS011;2279;51.448;7.306;2023-05-10T03:00:52;21.37;;;11.70;;
4533;SDS011;2279;51.448;7.306;2023-05-10T03:03:18;19.13;;;10.90;;
4533;SDS011;2279;51.448;7.306;2023-05-10T03:05:45;18.40;;;11.10;;
4533;SDS011;2279;51.448;7.306;2023-05-10T03:08:11;18.67;;;11.80;;
4533;SDS011;2279;51.448;7.306;2023-05-10T03:10:40;21.23;;;9.63;;
4533;SDS011;2279;51.448;7.306;2023-05-10T03:13:18;11.57;;;9.27;;
4533;SDS011;2279;51.448;7.306;2023-05-10T03:18:23;16.07;;;9.73;;
4533;SDS011;2279;51.448;7.306;2023-05-10T03:20:49;17.03;;;10.27;;
4533;SDS011;2279;51.448;7.306;2023-05-10T03:25:45;18.37;;;10.93;;
4533;SDS011;2279;51.448;7.306;2023-05-10T03:28:12;15.73;;;10.47;;
4533;SDS011;2279;51.448;7.306;2023-05-10T03:30:40;17.77;;;10.87;;
4533;SDS011;2279;51.448;7.306;2023-05-10T03:33:07;20.57;;;11.63;;
4533;SDS011;2279;51.448;7.306;2023-05-10T03:35:33;17.63;;;10.83;;
4533;SDS011;2279;51.448;7.306;2023-05-10T03:37:59;18.30;;;10.93;;
4533;SDS011;2279;51.448;7.306;2023-05-10T03:40:25;14.40;;;9.50;;
4533;SDS011;2279;51.448;7.306;2023-05-10T03:42:53;16.57;;;10.10;;
4533;SDS011;2279;51.448;7.306;2023-05-10T03:45:19;14.63;;;10.20;;
4533;SDS011;2279;51.448;7.306;2023-05-10T03:47:45;15.20;;;9.70;;
4533;SDS011;2279;51.448;7.306;2023-05-10T03:50:11;18.13;;;11.93;;
4533;SDS011;2279;51.448;7.306;2023-05-10T03:52:37;18.53;;;12.60;;
4533;SDS011;2279;51.448;7.306;2023-05-10T03:55:06;18.30;;;10.80;;
4533;SDS011;2279;51.448;7.306;2023-05-10T03:57:32;15.73;;;11.00;;
4533;SDS011;2279;51.448;7.306;2023-05-10T03:59:58;15.77;;;9.80;;
4533;SDS011;2279;51.448;7.306;2023-05-10T04:02:24;21.63;;;12.23;;
4533;SDS011;2279;51.448;7.306;2023-05-10T04:04:50;17.53;;;10.77;;
4533;SDS011;2279;51.448;7.306;2023-05-10T04:07:16;17.20;;;10.47;;
4533;SDS011;2279;51.448;7.306;2023-05-10T04:09:43;16.60;;;9.70;;
4533;SDS011;2279;51.448;7.306;2023-05-10T04:12:09;18.73;;;11.57;;
4533;SDS011;2279;51.448;7.306;2023-05-10T04:14:35;21.90;;;12.43;;
4533;SDS011;2279;51.448;7.306;2023-05-10T04:17:00;23.63;;;12.97;;
4533;SDS011;2279;51.448;7.306;2023-05-10T04:19:29;18.70;;;11.77;;
4533;SDS011;2279;51.448;7.306;2023-05-10T04:21:56;30.70;;;13.57;;
4533;SDS011;2279;51.448;7.306;2023-05-10T04:24:22;24.53;;;14.87;;
4533;SDS011;2279;51.448;7.306;2023-05-10T04:26:48;25.43;;;15.80;;
4533;SDS011;2279;51.448;7.306;2023-05-10T04:29:14;22.77;;;13.97;;
4533;SDS011;2279;51.448;7.306;2023-05-10T04:31:40;24.40;;;14.33;;
4533;SDS011;2279;51.448;7.306;2023-05-10T04:34:06;29.07;;;14.73;;
4533;SDS011;2279;51.448;7.306;2023-05-10T04:36:32;36.00;;;16.53;;
4533;SDS011;2279;51.448;7.306;2023-05-10T04:39:00;32.47;;;15.30;;
4533;SDS011;2279;51.448;7.306;2023-05-10T04:41:27;28.20;;;15.40;;
4533;SDS011;2279;51.448;7.306;2023-05-10T04:43:53;26.40;;;15.00;;
4533;SDS011;2279;51.448;7.306;2023-05-10T04:46:19;25.83;;;14.00;;
4533;SDS011;2279;51.448;7.306;2023-05-10T04:48:45;24.33;;;14.27;;
4533;SDS011;2279;51.448;7.306;2023-05-10T04:51:11;26.23;;;15.37;;
4533;SDS011;2279;51.448;7.306;2023-05-10T04:53:37;28.80;;;15.13;;
4533;SDS011;2279;51.448;7.306;2023-05-10T04:56:03;32.90;;;16.20;;
4533;SDS011;2279;51.448;7.306;2023-05-10T04:58:30;27.33;;;14.67;;
4533;SDS011;2279;51.448;7.306;2023-05-10T05:00:55;26.23;;;14.00;;
4533;SDS011;2279;51.448;7.306;2023-05-10T05:03:21;27.90;;;14.93;;
4533;SDS011;2279;51.448;7.306;2023-05-10T05:05:47;21.37;;;12.97;;
4533;SDS011;2279;51.448;7.306;2023-05-10T05:08:13;28.57;;;15.77;;
4533;SDS011;2279;51.448;7.306;2023-05-10T05:10:39;29.47;;;15.63;;
4533;SDS011;2279;51.448;7.306;2023-05-10T05:13:07;31.63;;;16.17;;
4533;SDS011;2279;51.448;7.306;2023-05-10T05:15:33;29.10;;;16.53;;
4533;SDS011;2279;51.448;7.306;2023-05-10T05:17:59;26.50;;;15.50;;
4533;SDS011;2279;51.448;7.306;2023-05-10T05:20:25;34.40;;;15.63;;
4533;SDS011;2279;51.448;7.306;2023-05-10T05:22:51;31.37;;;15.67;;
4533;SDS011;2279;51.448;7.306;2023-05-10T05:25:17;31.87;;;16.00;;
4533;SDS011;2279;51.448;7.306;2023-05-10T05:27:43;37.10;;;16.73;;
4533;SDS011;2279;51.448;7.306;2023-05-10T05:30:09;30.20;;;15.20;;
4533;SDS011;2279;51.448;7.306;2023-05-10T05:32:36;37.27;;;18.73;;
4533;SDS011;2279;51.448;7.306;2023-05-10T05:35:03;39.57;;;19.43;;
4533;SDS011;2279;51.448;7.306;2023-05-10T05:37:29;34.30;;;18.03;;
4533;SDS011;2279;51.448;7.306;2023-05-10T05:39:55;37.23;;;17.17;;
4533;SDS011;2279;51.448;7.306;2023-05-10T05:42:21;37.37;;;21.07;;
4533;SDS011;2279;51.448;7.306;2023-05-10T05:44:47;35.67;;;18.77;;
4533;SDS011;2279;51.448;7.306;2023-05-10T05:47:13;33.83;;;18.53;;
4533;SDS011;2279;51.448;7.306;2023-05-10T05:49:39;36.43;;;18.33;;
4533;SDS011;2279;51.448;7.306;2023-05-10T05:52:05;36.27;;;17.50;;
4533;SDS011;2279;51.448;7.306;2023-05-10T05:54:31;40.40;;;19.33;;
4533;SDS011;2279;51.448;7.306;2023-05-10T05:56:57;37.63;;;20.50;;
4533;SDS011;2279;51.448;7.306;2023-05-10T05:59:23;36.17;;;18.70;;
4533;SDS011;2279;51.448;7.306;2023-05-10T06:01:49;36.17;;;20.17;;
4533;SDS011;2279;51.448;7.306;2023-05-10T06:04:16;47.50;;;20.10;;
4533;SDS011;2279;51.448;7.306;2023-05-10T06:06:42;34.90;;;19.37;;
4533;SDS011;2279;51.448;7.306;2023-05-10T06:09:09;40.73;;;19.70;;
4533;SDS011;2279;51.448;7.306;2023-05-10T06:11:35;44.50;;;22.83;;
4533;SDS011;2279;51.448;7.306;2023-05-10T06:14:01;40.43;;;20.73;;
4533;SDS011;2279;51.448;7.306;2023-05-10T06:16:29;45.80;;;21.60;;
4533;SDS011;2279;51.448;7.306;2023-05-10T06:18:55;38.07;;;21.30;;
4533;SDS011;2279;51.448;7.306;2023-05-10T06:21:21;36.87;;;20.63;;
4533;SDS011;2279;51.448;7.306;2023-05-10T06:23:47;46.60;;;22.13;;
4533;SDS011;2279;51.448;7.306;2023-05-10T06:26:13;44.70;;;21.13;;
4533;SDS011;2279;51.448;7.306;2023-05-10T06:28:39;42.63;;;22.30;;
4533;SDS011;2279;51.448;7.306;2023-05-10T06:31:05;44.00;;;21.67;;
4533;SDS011;2279;51.448;7.306;2023-05-10T06:33:31;41.20;;;19.53;;
4533;SDS011;2279;51.448;7.306;2023-05-10T06:35:57;45.63;;;23.30;;
4533;SDS011;2279;51.448;7.306;2023-05-10T06:38:23;44.40;;;22.83;;
4533;SDS011;2279;51.448;7.306;2023-05-10T06:40:50;39.70;;;22.50;;
4533;SDS011;2279;51.448;7.306;2023-05-10T06:43:16;45.60;;;21.10;;
4533;SDS011;2279;51.448;7.306;2023-05-10T06:45:42;46.30;;;23.63;;
4533;SDS011;2279;51.448;7.306;2023-05-10T06:48:08;38.73;;;20.87;;
4533;SDS011;2279;51.448;7.306;2023-05-10T06:50:34;41.70;;;20.57;;
4533;SDS011;2279;51.448;7.306;2023-05-10T06:53:00;37.20;;;21.50;;
4533;SDS011;2279;51.448;7.306;2023-05-10T06:55:26;37.53;;;22.40;;
4533;SDS011;2279;51.448;7.306;2023-05-10T06:57:53;40.00;;;23.10;;
4533;SDS011;2279;51.448;7.306;2023-05-10T07:00:19;43.57;;;22.90;;
4533;SDS011;2279;51.448;7.306;2023-05-10T07:02:45;38.53;;;21.67;;
4533;SDS011;2279;51.448;7.306;2023-05-10T07:05:11;40.77;;;23.67;;
4533;SDS011;2279;51.448;7.306;2023-05-10T07:07:38;35.70;;;21.60;;
4533;SDS011;2279;51.448;7.306;2023-05-10T07:10:05;36.40;;;20.60;;
4533;SDS011;2279;51.448;7.306;2023-05-10T07:12:32;41.13;;;24.93;;
4533;SDS011;2279;51.448;7.306;2023-05-10T07:14:58;33.23;;;20.70;;
4533;SDS011;2279;51.448;7.306;2023-05-10T07:17:24;48.73;;;21.33;;
4533;SDS011;2279;51.448;7.306;2023-05-10T07:19:50;37.20;;;21.87;;
4533;SDS011;2279;51.448;7.306;2023-05-10T07:22:18;36.17;;;21.70;;
4533;SDS011;2279;51.448;7.306;2023-05-10T07:24:44;39.57;;;21.80;;
4533;SDS011;2279;51.448;7.306;2023-05-10T07:27:10;35.67;;;20.33;;
4533;SDS011;2279;51.448;7.306;2023-05-10T07:29:36;28.60;;;18.57;;
4533;SDS011;2279;51.448;7.306;2023-05-10T07:32:02;39.50;;;23.33;;
4533;SDS011;2279;51.448;7.306;2023-05-10T07:34:28;32.50;;;17.93;;
4533;SDS011;2279;51.448;7.306;2023-05-10T07:36:55;31.27;;;17.40;;
4533;SDS011;2279;51.448;7.306;2023-05-10T07:39:21;31.67;;;19.07;;
4533;SDS011;2279;51.448;7.306;2023-05-10T07:41:47;30.73;;;17.80;;
4533;SDS011;2279;51.448;7.306;2023-05-10T07:44:13;38.80;;;19.90;;
4533;SDS011;2279;51.448;7.306;2023-05-10T07:46:39;35.93;;;21.73;;
4533;SDS011;2279;51.448;7.306;2023-05-10T07:49:05;39.23;;;18.90;;
4533;SDS011;2279;51.448;7.306;2023-05-10T07:51:31;38.30;;;19.53;;
4533;SDS011;2279;51.448;7.306;2023-05-10T07:53:57;35.73;;;21.73;;
4533;SDS011;2279;51.448;7.306;2023-05-10T07:56:24;32.37;;;18.80;;
4533;SDS011;2279;51.448;7.306;2023-05-10T07:58:52;35.47;;;21.23;;
4533;SDS011;2279;51.448;7.306;2023-05-10T08:01:18;27.83;;;18.40;;
4533;SDS011;2279;51.448;7.306;2023-05-10T08:03:44;39.90;;;22.80;;
4533;SDS011;2279;51.448;7.306;2023-05-10T08:06:10;40.03;;;22.90;;
4533;SDS011;2279;51.448;7.306;2023-05-10T08:08:36;39.13;;;23.97;;
4533;SDS011;2279;51.448;7.306;2023-05-10T08:11:02;40.83;;;21.10;;
4533;SDS011;2279;51.448;7.306;2023-05-10T08:13:28;45.07;;;23.37;;
4533;SDS011;2279;51.448;7.306;2023-05-10T08:15:54;37.33;;;20.90;;
4533;SDS011;2279;51.448;7.306;2023-05-10T08:18:20;37.90;;;21.40;;
4533;SDS011;2279;51.448;7.306;2023-05-10T08:20:46;37.17;;;22.90;;
4533;SDS011;2279;51.448;7.306;2023-05-10T08:23:12;48.40;;;24.40;;
4533;SDS011;2279;51.448;7.306;2023-05-10T08:25:38;31.37;;;19.80;;
4533;SDS011;2279;51.448;7.306;2023-05-10T08:28:04;34.63;;;19.07;;
4533;SDS011;2279;51.448;7.306;2023-05-10T08:30:30;32.23;;;17.47;;
4533;SDS011;2279;51.448;7.306;2023-05-10T08:32:56;27.40;;;16.10;;
4533;SDS011;2279;51.448;7.306;2023-05-10T08:35:22;29.23;;;16.53;;
4533;SDS011;2279;51.448;7.306;2023-05-10T08:37:49;31.00;;;15.97;;
4533;SDS011;2279;51.448;7.306;2023-05-10T08:40:15;26.53;;;15.43;;
4533;SDS011;2279;51.448;7.306;2023-05-10T08:42:43;24.90;;;15.70;;
4533;SDS011;2279;51.448;7.306;2023-05-10T08:45:10;28.93;;;14.97;;
4533;SDS011;2279;51.448;7.306;2023-05-10T08:47:36;25.60;;;15.33;;
4533;SDS011;2279;51.448;7.306;2023-05-10T08:50:03;27.93;;;16.10;;
4533;SDS011;2279;51.448;7.306;2023-05-10T08:52:29;29.40;;;16.20;;
4533;SDS011;2279;51.448;7.306;2023-05-10T08:54:56;27.70;;;15.73;;
4533;SDS011;2279;51.448;7.306;2023-05-10T08:57:22;27.63;;;14.50;;
4533;SDS011;2279;51.448;7.306;2023-05-10T08:59:48;24.07;;;14.10;;
4533;SDS011;2279;51.448;7.306;2023-05-10T09:02:14;24.23;;;14.40;;
4533;SDS011;2279;51.448;7.306;2023-05-10T09:04:40;31.57;;;14.00;;
4533;SDS011;2279;51.448;7.306;2023-05-10T09:07:06;24.80;;;14.30;;
4533;SDS011;2279;51.448;7.306;2023-05-10T09:09:32;24.40;;;13.37;;
4533;SDS011;2279;51.448;7.306;2023-05-10T09:11:59;32.40;;;15.63;;
4533;SDS011;2279;51.448;7.306;2023-05-10T09:14:25;20.60;;;11.80;;
4533;SDS011;2279;51.448;7.306;2023-05-10T09:16:52;22.77;;;12.30;;
4533;SDS011;2279;51.448;7.306;2023-05-10T09:19:19;18.13;;;10.63;;
4533;SDS011;2279;51.448;7.306;2023-05-10T09:21:45;17.70;;;11.30;;
4533;SDS011;2279;51.448;7.306;2023-05-10T09:24:11;18.80;;;10.27;;
4533;SDS011;2279;51.448;7.306;2023-05-10T09:26:45;15.27;;;10.47;;
4533;SDS011;2279;51.448;7.306;2023-05-10T09:29:12;13.87;;;10.27;;
4533;SDS011;2279;51.448;7.306;2023-05-10T09:31:46;14.23;;;8.50;;
4533;SDS011;2279;51.448;7.306;2023-05-10T09:34:16;14.07;;;8.20;;
4533;SDS011;2279;51.448;7.306;2023-05-10T09:36:55;11.00;;;8.37;;
4533;SDS011;2279;51.448;7.306;2023-05-10T09:41:57;17.63;;;11.50;;
4533;SDS011;2279;51.448;7.306;2023-05-10T09:44:25;12.60;;;8.20;;
4533;SDS011;2279;51.448;7.306;2023-05-10T09:46:51;13.90;;;9.27;;
4533;SDS011;2279;51.448;7.306;2023-05-10T09:49:20;14.73;;;9.17;;
4533;SDS011;2279;51.448;7.306;2023-05-10T09:51:46;17.37;;;8.90;;
4533;SDS011;2279;51.448;7.306;2023-05-10T09:54:14;18.03;;;8.37;;
4533;SDS011;2279;51.448;7.306;2023-05-10T09:56:40;13.53;;;8.43;;
4533;SDS011;2279;51.448;7.306;2023-05-10T09:59:07;12.83;;;8.70;;
4533;SDS011;2279;51.448;7.306;2023-05-10T10:01:33;15.10;;;9.37;;
4533;SDS011;2279;51.448;7.306;2023-05-10T10:04:02;14.70;;;9.27;;
4533;SDS011;2279;51.448;7.306;2023-05-10T10:06:28;14.80;;;9.47;;
4533;SDS011;2279;51.448;7.306;2023-05-10T10:08:54;18.60;;;9.50;;
4533;SDS011;2279;51.448;7.306;2023-05-10T10:11:21;11.70;;;8.93;;
4533;SDS011;2279;51.448;7.306;2023-05-10T10:13:47;19.90;;;9.97;;
4533;SDS011;2279;51.448;7.306;2023-05-10T10:16:13;17.87;;;9.13;;
4533;SDS011;2279;51.448;7.306;2023-05-10T10:18:39;17.70;;;10.90;;
4533;SDS011;2279;51.448;7.306;2023-05-10T10:21:05;15.43;;;10.33;;
4533;SDS011;2279;51.448;7.306;2023-05-10T10:23:34;19.30;;;11.63;;
4533;SDS011;2279;51.448;7.306;2023-05-10T10:26:01;17.47;;;10.80;;
4533;SDS011;2279;51.448;7.306;2023-05-10T10:28:32;20.43;;;10.87;;
4533;SDS011;2279;51.448;7.306;2023-05-10T10:31:01;20.17;;;12.37;;
4533;SDS011;2279;51.448;7.306;2023-05-10T10:35:54;27.47;;;12.93;;
4533;SDS011;2279;51.448;7.306;2023-05-10T10:38:21;26.23;;;14.97;;
4533;SDS011;2279;51.448;7.306;2023-05-10T10:40:47;25.40;;;16.37;;
4533;SDS011;2279;51.448;7.306;2023-05-10T10:43:26;34.70;;;20.27;;
4533;SDS011;2279;51.448;7.306;2023-05-10T10:48:38;31.70;;;16.40;;
4533;SDS011;2279;51.448;7.306;2023-05-10T10:51:04;24.90;;;14.27;;
4533;SDS011;2279;51.448;7.306;2023-05-10T10:53:31;20.80;;;12.70;;
4533;SDS011;2279;51.448;7.306;2023-05-10T10:56:07;26.30;;;13.73;;
4533;SDS011;2279;51.448;7.306;2023-05-10T10:58:34;20.70;;;10.60;;
4533;SDS011;2279;51.448;7.306;2023-05-10T11:01:13;21.33;;;11.17;;
4533;SDS011;2279;51.448;7.306;2023-05-10T11:03:41;26.57;;;12.63;;
4533;SDS011;2279;51.448;7.306;2023-05-10T11:06:07;18.40;;;11.43;;
4533;SDS011;2279;51.448;7.306;2023-05-10T11:08:34;20.27;;;11.60;;
4533;SDS011;2279;51.448;7.306;2023-05-10T11:15:58;14.73;;;10.20;;
4533;SDS011;2279;51.448;7.306;2023-05-10T11:18:28;22.60;;;12.47;;
4533;SDS011;2279;51.448;7.306;2023-05-10T11:20:58;14.10;;;10.50;;
4533;SDS011;2279;51.448;7.306;2023-05-10T11:23:29;17.00;;;11.57;;
4533;SDS011;2279;51.448;7.306;2023-05-10T11:25:55;19.27;;;11.67;;
4533;SDS011;2279;51.448;7.306;2023-05-10T11:28:22;21.20;;;13.57;;
4533;SDS011;2279;51.448;7.306;2023-05-10T11:30:48;20.53;;;14.13;;
4533;SDS011;2279;51.448;7.306;2023-05-10T11:33:15;21.10;;;11.87;;
4533;SDS011;2279;51.448;7.306;2023-05-10T11:35:41;19.10;;;12.50;;
4533;SDS011;2279;51.448;7.306;2023-05-10T11:38:10;17.43;;;12.97;;
4533;SDS011;2279;51.448;7.306;2023-05-10T11:40:37;21.93;;;13.10;;
4533;SDS011;2279;51.448;7.306;2023-05-10T11:43:03;27.23;;;15.70;;
4533;SDS011;2279;51.448;7.306;2023-05-10T11:45:33;18.37;;;12.47;;
4533;SDS011;2279;51.448;7.306;2023-05-10T11:47:59;32.20;;;13.60;;
4533;SDS011;2279;51.448;7.306;2023-05-10T11:50:25;16.47;;;12.47;;
4533;SDS011;2279;51.448;7.306;2023-05-10T11:52:51;24.77;;;15.03;;
4533;SDS011;2279;51.448;7.306;2023-05-10T11:55:17;15.27;;;10.87;;
4533;SDS011;2279;51.448;7.306;2023-05-10T11:57:43;22.43;;;11.97;;
4533;SDS011;2279;51.448;7.306;2023-05-10T12:00:11;19.50;;;10.30;;
4533;SDS011;2279;51.448;7.306;2023-05-10T12:02:37;27.73;;;12.03;;
4533;SDS011;2279;51.448;7.306;2023-05-10T12:05:03;18.40;;;11.23;;
4533;SDS011;2279;51.448;7.306;2023-05-10T12:07:30;19.20;;;10.70;;
4533;SDS011;2279;51.448;7.306;2023-05-10T12:12:38;24.00;;;9.53;;
4533;SDS011;2279;51.448;7.306;2023-05-10T12:15:04;22.13;;;11.10;;
4533;SDS011;2279;51.448;7.306;2023-05-10T12:17:31;17.43;;;10.80;;
4533;SDS011;2279;51.448;7.306;2023-05-10T12:20:13;23.03;;;10.40;;
4533;SDS011;2279;51.448;7.306;2023-05-10T12:22:40;23.53;;;10.70;;
4533;SDS011;2279;51.448;7.306;2023-05-10T12:25:06;18.27;;;12.07;;
4533;SDS011;2279;51.448;7.306;2023-05-10T12:27:33;18.70;;;11.43;;
4533;SDS011;2279;51.448;7.306;2023-05-10T12:29:59;18.40;;;10.40;;
4533;SDS011;2279;51.448;7.306;2023-05-10T12:35:20;11.47;;;9.70;;
4533;SDS011;2279;51.448;7.306;2023-05-10T12:37:48;18.73;;;9.30;;
4533;SDS011;2279;51.448;7.306;2023-05-10T12:40:14;13.67;;;9.67;;
4533;SDS011;2279;51.448;7.306;2023-05-10T12:42:40;17.37;;;10.50;;
4533;SDS011;2279;51.448;7.306;2023-05-10T12:45:07;11.67;;;8.30;;
4533;SDS011;2279;51.448;7.306;2023-05-10T12:47:34;13.57;;;9.00;;
4533;SDS011;2279;51.448;7.306;2023-05-10T12:50:00;16.00;;;8.73;;
4533;SDS011;2279;51.448;7.306;2023-05-10T12:52:27;16.93;;;11.13;;
4533;SDS011;2279;51.448;7.306;2023-05-10T12:54:53;19.70;;;9.43;;
4533;SDS011;2279;51.448;7.306;2023-05-10T12:57:20;16.43;;;9.50;;
4533;SDS011;2279;51.448;7.306;2023-05-10T12:59:46;10.53;;;8.60;;
4533;SDS011;2279;51.448;7.306;2023-05-10T13:02:12;15.43;;;10.87;;
4533;SDS011;2279;51.448;7.306;2023-05-10T13:04:39;12.87;;;8.73;;
4533;SDS011;2279;51.448;7.306;2023-05-10T13:07:06;14.33;;;7.73;;
4533;SDS011;2279;51.448;7.306;2023-05-10T13:09:32;12.60;;;8.43;;
4533;SDS011;2279;51.448;7.306;2023-05-10T13:11:58;12.67;;;9.10;;
4533;SDS011;2279;51.448;7.306;2023-05-10T13:14:24;15.43;;;9.60;;
4533;SDS011;2279;51.448;7.306;2023-05-10T13:16:50;12.30;;;10.13;;
4533;SDS011;2279;51.448;7.306;2023-05-10T13:19:16;15.40;;;10.97;;
4533;SDS011;2279;51.448;7.306;2023-05-10T13:21:43;15.03;;;11.90;;
4533;SDS011;2279;51.448;7.306;2023-05-10T13:24:11;12.30;;;10.90;;
4533;SDS011;2279;51.448;7.306;2023-05-10T13:26:41;19.60;;;10.50;;
4533;SDS011;2279;51.448;7.306;2023-05-10T13:29:07;11.50;;;10.30;;
4533;SDS011;2279;51.448;7.306;2023-05-10T13:31:34;14.87;;;12.00;;
4533;SDS011;2279;51.448;7.306;2023-05-10T13:34:00;12.57;;;10.27;;
4533;SDS011;2279;51.448;7.306;2023-05-10T13:36:27;14.03;;;10.17;;
4533;SDS011;2279;51.448;7.306;2023-05-10T13:39:06;12.47;;;10.20;;
4533;SDS011;2279;51.448;7.306;2023-05-10T13:41:32;12.37;;;8.13;;
4533;SDS011;2279;51.448;7.306;2023-05-10T13:43:59;7.70;;;7.00;;
4533;SDS011;2279;51.448;7.306;2023-05-10T13:46:25;9.37;;;7.70;;
4533;SDS011;2279;51.448;7.306;2023-05-10T13:48:51;9.57;;;7.17;;
4533;SDS011;2279;51.448;7.306;2023-05-10T13:51:17;9.97;;;7.23;;
4533;SDS011;2279;51.448;7.306;2023-05-10T13:53:43;13.67;;;5.90;;
4533;SDS011;2279;51.448;7.306;2023-05-10T13:56:09;7.37;;;5.93;;
4533;SDS011;2279;51.448;7.306;2023-05-10T13:58:35;6.73;;;5.50;;
4533;SDS011;2279;51.448;7.306;2023-05-10T14:01:01;10.07;;;5.67;;
4533;SDS011;2279;51.448;7.306;2023-05-10T14:03:27;15.83;;;9.67;;
4533;SDS011;2279;51.448;7.306;2023-05-10T14:05:53;7.17;;;5.43;;
4533;SDS011;2279;51.448;7.306;2023-05-10T14:08:19;8.93;;;5.10;;
4533;SDS011;2279;51.448;7.306;2023-05-10T14:10:45;6.53;;;5.87;;
4533;SDS011;2279;51.448;7.306;2023-05-10T14:13:11;12.97;;;8.50;;
4533;SDS011;2279;51.448;7.306;2023-05-10T14:15:37;6.80;;;5.17;;
4533;SDS011;2279;51.448;7.306;2023-05-10T14:18:03;9.90;;;4.77;;
4533;SDS011;2279;51.448;7.306;2023-05-10T14:20:29;7.20;;;4.50;;
4533;SDS011;2279;51.448;7.306;2023-05-10T14:22:57;5.30;;;4.60;;
4533;SDS011;2279;51.448;7.306;2023-05-10T14:25:23;7.70;;;4.37;;
4533;SDS011;2279;51.448;7.306;2023-05-10T14:27:48;6.83;;;4.00;;
4533;SDS011;2279;51.448;7.306;2023-05-10T14:30:16;3.90;;;3.50;;
4533;SDS011;2279;51.448;7.306;2023-05-10T14:32:42;7.17;;;3.47;;
4533;SDS011;2279;51.448;7.306;2023-05-10T14:35:08;4.83;;;3.43;;
4533;SDS011;2279;51.448;7.306;2023-05-10T14:37:34;5.40;;;3.77;;
4533;SDS011;2279;51.448;7.306;2023-05-10T14:40:00;6.07;;;3.60;;
4533;SDS011;2279;51.448;7.306;2023-05-10T14:42:26;8.60;;;4.63;;
4533;SDS011;2279;51.448;7.306;2023-05-10T14:44:53;5.07;;;3.90;;
4533;SDS011;2279;51.448;7.306;2023-05-10T14:47:19;4.53;;;3.70;;
4533;SDS011;2279;51.448;7.306;2023-05-10T14:49:45;5.30;;;3.83;;
4533;SDS011;2279;51.448;7.306;2023-05-10T14:52:11;6.50;;;3.80;;
4533;SDS011;2279;51.448;7.306;2023-05-10T14:54:37;9.60;;;3.70;;
4533;SDS011;2279;51.448;7.306;2023-05-10T14:57:03;7.83;;;3.97;;
4533;SDS011;2279;51.448;7.306;2023-05-10T14:59:29;5.73;;;2.93;;
4533;SDS011;2279;51.448;7.306;2023-05-10T15:01:55;6.23;;;3.27;;
4533;SDS011;2279;51.448;7.306;2023-05-10T15:04:21;6.30;;;4.03;;
4533;SDS011;2279;51.448;7.306;2023-05-10T15:06:47;5.80;;;4.20;;
4533;SDS011;2279;51.448;7.306;2023-05-10T15:09:13;7.60;;;3.83;;
4533;SDS011;2279;51.448;7.306;2023-05-10T15:11:41;5.53;;;4.23;;
4533;SDS011;2279;51.448;7.306;2023-05-10T15:14:08;9.00;;;4.73;;
4533;SDS011;2279;51.448;7.306;2023-05-10T15:16:34;4.73;;;3.90;;
4533;SDS011;2279;51.448;7.306;2023-05-10T15:19:00;9.10;;;4.90;;
4533;SDS011;2279;51.448;7.306;2023-05-10T15:21:26;5.10;;;4.13;;
4533;SDS011;2279;51.448;7.306;2023-05-10T15:23:52;5.63;;;4.93;;
4533;SDS011;2279;51.448;7.306;2023-05-10T15:26:19;6.30;;;5.70;;
4533;SDS011;2279;51.448;7.306;2023-05-10T15:28:45;7.20;;;6.20;;
4533;SDS011;2279;51.448;7.306;2023-05-10T15:31:11;7.57;;;5.90;;